Time;durP1;ratioP1;P1;durP2;ratioP2;P2;SDS_P1;SDS_P2;PMS_P1;PMS_P2;Temp;Humidity;BMP_temperature;BMP_pressure;BME280_temperature;BME280_humidity;BME280_pressure;Samples;Min_cycle;Max_cycle;Signal;HPM_P1;HPM_P2
2019/04/05 00:01:55;;;;;;;23.6;21.3;;;;;;;4.92;79.3877;947.4247;;;;
2019/04/05 00:04:20;;;;;;;23.1;20.7;;;;;;;4.92;79.11328;947.3908;;;;
2019/04/05 00:06:46;;;;;;;24.3;21.9;;;;;;;4.84;79.47461;947.5222;;;;
2019/04/05 00:09:11;;;;;;;22.9;20.7;;;;;;;4.88;79.27637;947.5192;;;;
2019/04/05 00:11:36;;;;;;;22.9;20.6;;;;;;;4.9;79.19141;947.5856;;;;
2019/04/05 00:14:01;;;;;;;23.4;21;;;;;;;4.85;79.52051;947.5822;;;;
2019/04/05 00:16:26;;;;;;;23.5;21.1;;;;;;;4.77;79.9043;947.545;;;;
2019/04/05 00:18:51;;;;;;;25.9;23.2;;;;;;;4.52;80.60449;947.5881;;;;
2019/04/05 00:21:16;;;;;;;24.2;21.6;;;;;;;4.62;80.97656;947.6312;;;;
2019/04/05 00:23:41;;;;;;;24.2;21.8;;;;;;;4.61;80.29395;947.6707;;;;
2019/04/05 00:26:06;;;;;;;24.6;22.1;;;;;;;4.7;80.39063;947.6202;;;;
2019/04/05 00:28:31;;;;;;;22.9;20.7;;;;;;;4.88;79.26563;947.6096;;;;
2019/04/05 00:30:57;;;;;;;23;20.7;;;;;;;4.85;79.4873;947.5863;;;;
2019/04/05 00:33:22;;;;;;;22.3;20.1;;;;;;;5.06;77.92383;947.6722;;;;
2019/04/05 00:35:47;;;;;;;22.3;20;;;;;;;4.99;77.82129;947.677;;;;
2019/04/05 00:38:12;;;;;;;22.7;20.5;;;;;;;4.85;78.48828;947.6074;;;;
2019/04/05 00:40:37;;;;;;;23.4;21.1;;;;;;;4.91;78.40723;947.5165;;;;
2019/04/05 00:43:03;;;;;;;21.3;19.2;;;;;;;5.04;77.88672;947.4885;;;;
2019/04/05 00:45:28;;;;;;;22.9;20.5;;;;;;;5.09;77.7373;947.5397;;;;
2019/04/05 00:47:53;;;;;;;22.2;19.9;;;;;;;5.18;76.65137;947.5148;;;;
2019/04/05 00:50:18;;;;;;;21.9;19.8;;;;;;;5.12;77.46777;947.4731;;;;
2019/04/05 00:52:43;;;;;;;21.6;19.5;;;;;;;5.19;77.03711;947.5188;;;;
2019/04/05 00:55:09;;;;;;;23.1;20.8;;;;;;;5.2;76.6543;947.4439;;;;
2019/04/05 00:57:34;;;;;;;24.4;21.9;;;;;;;5.04;77.20508;947.5789;;;;
2019/04/05 00:59:59;;;;;;;23.2;20.9;;;;;;;4.88;78.11816;947.6225;;;;
2019/04/05 01:02:24;;;;;;;24.1;21.7;;;;;;;4.89;77.7002;947.7073;;;;
2019/04/05 01:04:49;;;;;;;23.7;21.4;;;;;;;5.09;77.05371;947.7551;;;;
2019/04/05 01:07:14;;;;;;;23.2;20.9;;;;;;;5.06;77.16309;947.7578;;;;
2019/04/05 01:09:39;;;;;;;23.2;20.9;;;;;;;5.02;77.10938;947.7656;;;;
2019/04/05 01:12:04;;;;;;;22.7;20.4;;;;;;;5.04;77.03418;947.7896;;;;
2019/04/05 01:14:29;;;;;;;24.2;21.7;;;;;;;4.88;77.45996;947.842;;;;
2019/04/05 01:16:54;;;;;;;23.6;21.2;;;;;;;4.81;77.62988;947.8041;;;;
2019/04/05 01:19:20;;;;;;;22.4;20.2;;;;;;;5.09;76.97461;947.8286;;;;
2019/04/05 01:21:45;;;;;;;23.1;20.7;;;;;;;5.06;77.02637;947.8401;;;;
2019/04/05 01:24:10;;;;;;;23.3;21;;;;;;;4.98;76.69531;947.7472;;;;
2019/04/05 01:26:35;;;;;;;24.1;21.7;;;;;;;4.81;77.3457;947.8686;;;;
2019/04/05 01:29:00;;;;;;;24;21.6;;;;;;;4.9;77.69141;947.8052;;;;
2019/04/05 01:31:25;;;;;;;23.9;21.5;;;;;;;4.96;77.25879;947.8734;;;;
2019/04/05 01:33:53;;;;;;;21.9;19.8;;;;;;;5.04;77.10254;947.8066;;;;
2019/04/05 01:36:15;;;;;;;24.3;21.9;;;;;;;4.85;77.51172;947.8098;;;;
2019/04/05 01:38:41;;;;;;;23.8;21.4;;;;;;;4.83;77.4502;947.8722;;;;
2019/04/05 01:41:06;;;;;;;23.8;21.4;;;;;;;4.98;76.88672;947.7777;;;;
2019/04/05 01:43:31;;;;;;;23.5;21.1;;;;;;;5.06;76.25391;947.8013;;;;
2019/04/05 01:45:56;;;;;;;24.9;22.4;;;;;;;4.79;77.59082;947.8627;;;;
2019/04/05 01:48:22;;;;;;;22.4;20.2;;;;;;;4.99;77.24023;947.798;;;;
2019/04/05 01:50:47;;;;;;;24.3;21.8;;;;;;;4.87;76.95801;947.7737;;;;
2019/04/05 01:53:12;;;;;;;24;21.6;;;;;;;4.74;77.86523;947.8453;;;;
2019/04/05 01:55:37;;;;;;;23.7;21.3;;;;;;;4.9;76.97559;947.8439;;;;
2019/04/05 01:58:02;;;;;;;23;20.7;;;;;;;5.01;76.87012;947.8778;;;;
2019/04/05 02:00:28;;;;;;;24.1;21.6;;;;;;;4.91;76.89648;947.7918;;;;
2019/04/05 02:02:53;;;;;;;23.9;21.5;;;;;;;5.09;75.97461;947.764;;;;
2019/04/05 02:05:18;;;;;;;23.5;21.1;;;;;;;4.98;76.97949;947.8287;;;;
2019/04/05 02:07:43;;;;;;;23.2;20.9;;;;;;;5.08;76.73535;947.7516;;;;
2019/04/05 02:10:08;;;;;;;23.4;21.1;;;;;;;5.19;75.70898;947.7636;;;;
2019/04/05 02:12:34;;;;;;;22.8;20.5;;;;;;;5.31;75.50293;947.7578;;;;
2019/04/05 02:14:59;;;;;;;23.3;21;;;;;;;5.17;75.53418;947.7186;;;;
2019/04/05 02:17:24;;;;;;;23.1;20.8;;;;;;;5.18;75.67188;947.7868;;;;
2019/04/05 02:19:49;;;;;;;23.4;21;;;;;;;5.14;75.62012;947.7249;;;;
2019/04/05 02:22:15;;;;;;;23.3;21;;;;;;;5.2;75.95898;947.7159;;;;
2019/04/05 02:24:39;;;;;;;22.2;20;;;;;;;5.31;76.09375;947.7449;;;;
2019/04/05 02:27:05;;;;;;;23.4;21;;;;;;;5.38;74.49023;947.7607;;;;
2019/04/05 02:29:30;;;;;;;23.3;21;;;;;;;5.33;75.80176;947.8165;;;;
2019/04/05 02:31:55;;;;;;;23.2;20.8;;;;;;;5.41;74.45117;947.7839;;;;
2019/04/05 02:34:20;;;;;;;23.4;21;;;;;;;5.38;75.04883;947.7687;;;;
2019/04/05 02:36:45;;;;;;;24.2;21.7;;;;;;;5.37;74.53613;947.7097;;;;
2019/04/05 02:39:10;;;;;;;23.9;21.4;;;;;;;5.35;74.49805;947.7371;;;;
2019/04/05 02:41:35;;;;;;;23.3;20.9;;;;;;;5.3;75.47852;947.8063;;;;
2019/04/05 02:44:00;;;;;;;24.9;22.4;;;;;;;5.27;76.09863;947.7742;;;;
2019/04/05 02:46:25;;;;;;;25.8;23.1;;;;;;;5.04;76.25;947.8582;;;;
2019/04/05 02:48:50;;;;;;;24.9;22.4;;;;;;;5.04;76.7959;947.9397;;;;
2019/04/05 02:51:18;;;;;;;27.3;24.5;;;;;;;4.89;77.24512;947.9139;;;;
2019/04/05 02:53:41;;;;;;;26;23.3;;;;;;;4.88;76.6875;947.9752;;;;
2019/04/05 02:56:06;;;;;;;26.9;24.1;;;;;;;4.77;77.13379;947.8678;;;;
2019/04/05 02:58:31;;;;;;;25.5;22.9;;;;;;;4.83;77.69922;947.8933;;;;
2019/04/05 03:00:56;;;;;;;26.5;23.7;;;;;;;4.94;77.15137;947.9361;;;;
2019/04/05 03:03:21;;;;;;;27.3;24.4;;;;;;;4.98;76.61426;947.9368;;;;
2019/04/05 03:05:46;;;;;;;26.7;23.3;;;;;;;5.03;77.18066;947.9324;;;;
2019/04/05 03:08:11;;;;;;;26.9;24.1;;;;;;;5.12;76.91113;947.9382;;;;
2019/04/05 03:10:36;;;;;;;26.3;23.5;;;;;;;5.17;76.51172;947.9722;;;;
2019/04/05 03:13:02;;;;;;;25.8;23.1;;;;;;;5.32;75.8125;947.9332;;;;
2019/04/05 03:15:27;;;;;;;25.8;23;;;;;;;5.35;75.70215;947.9095;;;;
2019/04/05 03:17:52;;;;;;;26.3;23.5;;;;;;;5.16;76.31641;947.9906;;;;
2019/04/05 03:20:17;;;;;;;27;24.1;;;;;;;4.9;77.1582;947.9472;;;;
2019/04/05 03:22:42;;;;;;;28.2;25.2;;;;;;;4.81;77.94629;947.8645;;;;
2019/04/05 03:25:07;;;;;;;30;25;;;;;;;4.72;78.47656;947.9279;;;;
2019/04/05 03:27:32;;;;;;;27.7;24;;;;;;;5.08;77.66699;947.9066;;;;
2019/04/05 03:29:57;;;;;;;25.4;22.6;;;;;;;5.27;75.96191;947.848;;;;
2019/04/05 03:32:22;;;;;;;26.5;23.4;;;;;;;5.33;76.1084;947.907;;;;
2019/04/05 03:34:48;;;;;;;27.2;24;;;;;;;5.22;76.56641;947.9208;;;;
2019/04/05 03:37:13;;;;;;;26.1;23.3;;;;;;;5.22;77.32813;947.9037;;;;
2019/04/05 03:39:38;;;;;;;27.4;24.4;;;;;;;5.28;76.19141;947.842;;;;
2019/04/05 03:42:03;;;;;;;28.6;25.5;;;;;;;4.84;77.44043;947.8369;;;;
2019/04/05 03:44:28;;;;;;;27.3;24.3;;;;;;;5.02;77.56543;947.8641;;;;
2019/04/05 03:46:53;;;;;;;29;25.8;;;;;;;4.8;78.02441;947.8998;;;;
2019/04/05 03:49:18;;;;;;;27.8;24.8;;;;;;;5.04;77.125;947.9099;;;;
2019/04/05 03:51:43;;;;;;;28.8;25.4;;;;;;;5.09;76.34961;947.9359;;;;
2019/04/05 03:54:08;;;;;;;29;25.4;;;;;;;5;77.05078;947.9648;;;;
2019/04/05 03:56:33;;;;;;;30.9;25.9;;;;;;;5.17;76.85254;948.002;;;;
2019/04/05 03:58:59;;;;;;;31.1;27.2;;;;;;;4.95;77.75684;948.0379;;;;
2019/04/05 04:02:29;;;;;;;28.7;25.1;;;;;;;5.13;76.59766;948.0183;;;;
2019/04/05 04:04:54;;;;;;;29.4;24.7;;;;;;;5.23;76.52441;947.9972;;;;
2019/04/05 04:07:20;;;;;;;28.2;25.2;;;;;;;5.41;76.46191;948.0125;;;;
2019/04/05 04:09:45;;;;;;;28;24.2;;;;;;;5.4;75.31348;948.1077;;;;
2019/04/05 04:12:10;;;;;;;31.3;26.2;;;;;;;5.15;76.24707;948.1294;;;;
2019/04/05 04:14:35;;;;;;;27.9;24.8;;;;;;;5.4;75.90527;948.1635;;;;
2019/04/05 04:17:00;;;;;;;29.5;25.8;;;;;;;5.38;75.78613;948.1266;;;;
2019/04/05 04:19:25;;;;;;;29.2;26;;;;;;;5.25;75.86621;948.1467;;;;
2019/04/05 04:21:50;;;;;;;30.8;27;;;;;;;4.75;78.16211;948.1714;;;;
2019/04/05 04:24:19;;;;;;;31;27.2;;;;;;;4.9;77.53223;948.0851;;;;
2019/04/05 04:26:44;;;;;;;32.5;27.8;;;;;;;4.79;77.86328;948.1337;;;;
2019/04/05 04:29:10;;;;;;;31.4;27;;;;;;;4.95;77.50684;948.1847;;;;
2019/04/05 04:31:35;;;;;;;32.7;27.3;;;;;;;4.79;77.87695;948.1072;;;;
2019/04/05 04:34:00;;;;;;;31.7;26.5;;;;;;;4.91;77.83887;948.1194;;;;
2019/04/05 04:36:25;;;;;;;35.7;28.6;;;;;;;4.71;78.06445;948.1658;;;;
2019/04/05 04:38:50;;;;;;;31;26.7;;;;;;;4.94;77.68555;948.1297;;;;
2019/04/05 04:41:15;;;;;;;34.4;28.5;;;;;;;4.66;78.5332;948.1307;;;;
2019/04/05 04:43:40;;;;;;;34.7;29.1;;;;;;;4.83;78.05176;948.1128;;;;
2019/04/05 04:46:05;;;;;;;33.8;27;;;;;;;4.88;78.25488;948.1213;;;;
2019/04/05 04:48:31;;;;;;;32.6;27.4;;;;;;;5.02;77.89258;948.0538;;;;
2019/04/05 04:50:56;;;;;;;33.2;27.8;;;;;;;5.13;76.7666;948.0836;;;;
2019/04/05 04:53:21;;;;;;;32.7;28.1;;;;;;;4.96;77.25879;948.1317;;;;
2019/04/05 04:55:46;;;;;;;33.5;28.5;;;;;;;5.07;76.81055;948.05;;;;
2019/04/05 04:58:11;;;;;;;33.4;28.5;;;;;;;5.01;76.81348;947.9681;;;;
2019/04/05 05:00:36;;;;;;;34.8;28.1;;;;;;;4.94;77.74219;947.9489;;;;
2019/04/05 05:03:01;;;;;;;32.3;27.3;;;;;;;4.91;78.2373;948.0114;;;;
2019/04/05 05:05:27;;;;;;;33.6;28.4;;;;;;;5.03;77.7373;948.0227;;;;
2019/04/05 05:07:52;;;;;;;35;29;;;;;;;4.98;77.61523;948.1516;;;;
2019/04/05 05:10:17;;;;;;;31.9;26.9;;;;;;;5.09;77.47461;948.1814;;;;
2019/04/05 05:12:42;;;;;;;32;27.6;;;;;;;4.94;77.58301;948.2719;;;;
2019/04/05 05:15:07;;;;;;;33.4;28;;;;;;;4.94;77.74316;948.2242;;;;
2019/04/05 05:17:32;;;;;;;34.2;28.4;;;;;;;4.77;78.33691;948.2034;;;;
2019/04/05 05:19:57;;;;;;;33.2;28.4;;;;;;;4.81;78.74316;948.2301;;;;
2019/04/05 05:22:22;;;;;;;32.9;27.3;;;;;;;5.01;77.6543;948.2224;;;;
2019/04/05 05:24:48;;;;;;;33.9;27.4;;;;;;;5.22;77.39648;948.3301;;;;
2019/04/05 05:27:13;;;;;;;33.8;28.3;;;;;;;5.09;76.94043;948.2896;;;;
2019/04/05 05:29:38;;;;;;;34.7;28.6;;;;;;;4.91;78.10059;948.3172;;;;
2019/04/05 05:32:03;;;;;;;36;28.6;;;;;;;4.79;78.54492;948.3484;;;;
2019/04/05 05:34:29;;;;;;;31.6;25.9;;;;;;;4.98;78.64941;948.2637;;;;
2019/04/05 05:36:54;;;;;;;31.6;26.5;;;;;;;5.08;77.64355;948.2125;;;;
2019/04/05 05:39:19;;;;;;;32.5;26.8;;;;;;;5.1;77.2373;948.2154;;;;
2019/04/05 05:41:45;;;;;;;34.4;27.9;;;;;;;4.98;77.7627;948.2548;;;;
2019/04/05 05:44:10;;;;;;;36.9;28.8;;;;;;;4.78;78.5752;948.285;;;;
2019/04/05 05:46:35;;;;;;;35.3;28.7;;;;;;;4.67;79.2041;948.3028;;;;
2019/04/05 05:49:00;;;;;;;34.2;28.3;;;;;;;4.83;79.19824;948.2725;;;;
2019/04/05 05:51:26;;;;;;;35.8;28.4;;;;;;;4.91;78.20313;948.1969;;;;
2019/04/05 05:53:52;;;;;;;35.9;28.2;;;;;;;5.05;78.18359;948.1973;;;;
2019/04/05 05:56:17;;;;;;;34.3;27.8;;;;;;;5.03;77.78418;948.1301;;;;
2019/04/05 05:58:42;;;;;;;36.6;28.7;;;;;;;5.08;77.89453;948.1559;;;;
2019/04/05 06:01:08;;;;;;;37.1;27.6;;;;;;;5;77.48242;948.1715;;;;
2019/04/05 06:03:37;;;;;;;39.7;30.3;;;;;;;4.83;78.80078;948.2378;;;;
2019/04/05 06:06:04;;;;;;;35.1;29;;;;;;;4.91;78.32813;948.2527;;;;
2019/04/05 06:08:28;;;;;;;36.7;29;;;;;;;4.81;78.59473;948.2301;;;;
2019/04/05 06:10:53;;;;;;;35.5;28.8;;;;;;;5.05;78.12695;948.2578;;;;
2019/04/05 06:13:18;;;;;;;34;27.2;;;;;;;4.9;77.79395;948.2531;;;;
2019/04/05 06:15:43;;;;;;;31.3;26.2;;;;;;;5.24;76.95801;948.2548;;;;
2019/04/05 06:18:09;;;;;;;31.3;25.7;;;;;;;5.49;75.75195;948.2461;;;;
2019/04/05 06:20:34;;;;;;;29.1;25.1;;;;;;;5.59;75.22168;948.2809;;;;
2019/04/05 06:23:00;;;;;;;32.2;26.9;;;;;;;5.61;76.13672;948.309;;;;
2019/04/05 06:25:25;;;;;;;33;27.2;;;;;;;5.31;76.08105;948.3312;;;;
2019/04/05 06:27:50;;;;;;;31.5;26.2;;;;;;;5.26;77.56152;948.3438;;;;
2019/04/05 06:30:15;;;;;;;35.3;27.5;;;;;;;5.28;77.15625;948.312;;;;
2019/04/05 06:32:40;;;;;;;30.5;25.8;;;;;;;5.51;76.44727;948.2667;;;;
2019/04/05 06:35:09;;;;;;;30.7;25.5;;;;;;;5.7;74.98047;948.3358;;;;
2019/04/05 06:37:34;;;;;;;30.4;25.6;;;;;;;5.59;75.00586;948.3715;;;;
2019/04/05 06:39:59;;;;;;;31.8;26.3;;;;;;;5.55;75.86523;948.3142;;;;
2019/04/05 06:42:24;;;;;;;31.6;27.1;;;;;;;5.1;76.38672;948.4601;;;;
2019/04/05 06:44:49;;;;;;;30.4;25.4;;;;;;;5.27;76.89453;948.3644;;;;
2019/04/05 06:47:14;;;;;;;30.2;25.1;;;;;;;5.46;76.62012;948.3399;;;;
2019/04/05 06:49:39;;;;;;;29.6;25.7;;;;;;;5.62;76.15918;948.3042;;;;
2019/04/05 06:52:05;;;;;;;31.5;25.6;;;;;;;5.56;75.75195;948.3184;;;;
2019/04/05 06:54:30;;;;;;;30.5;25.7;;;;;;;5.5;75.50293;948.3228;;;;
2019/04/05 06:56:55;;;;;;;29.2;24.9;;;;;;;5.61;75.2832;948.2961;;;;
2019/04/05 06:59:20;;;;;;;30.7;25.8;;;;;;;5.58;74.77832;948.247;;;;
2019/04/05 07:01:46;;;;;;;31.4;25;;;;;;;5.62;74.7959;948.2436;;;;
2019/04/05 07:04:11;;;;;;;33.4;25;;;;;;;5.7;74.47852;948.2759;;;;
2019/04/05 07:06:36;;;;;;;30.2;24.9;;;;;;;5.79;74.87109;948.2849;;;;
2019/04/05 07:09:03;;;;;;;32.4;25.3;;;;;;;5.74;75.4873;948.3025;;;;
2019/04/05 07:11:27;;;;;;;31.9;25.4;;;;;;;5.57;74.95703;948.3131;;;;
2019/04/05 07:13:52;;;;;;;32.3;25.8;;;;;;;5.51;75.59473;948.2837;;;;
2019/04/05 07:16:17;;;;;;;30.7;25.4;;;;;;;5.61;76.38672;948.2791;;;;
2019/04/05 07:18:42;;;;;;;31.4;25.4;;;;;;;5.57;76.10449;948.322;;;;
2019/04/05 07:21:07;;;;;;;30.2;23.8;;;;;;;5.64;74.79688;948.2512;;;;
2019/04/05 07:23:32;;;;;;;30.4;26.5;;;;;;;5.52;75.90332;948.2401;;;;
2019/04/05 07:25:57;;;;;;;31.3;26;;;;;;;5.77;75.15039;948.3345;;;;
2019/04/05 07:28:22;;;;;;;32.5;26.3;;;;;;;5.78;74.87891;948.2606;;;;
2019/04/05 07:30:47;;;;;;;29.2;24.9;;;;;;;6.17;73.91113;948.3431;;;;
2019/04/05 07:33:19;;;;;;;29.9;24.9;;;;;;;6.02;74.44531;948.2783;;;;
2019/04/05 07:35:45;;;;;;;33.7;25.6;;;;;;;5.99;74.03027;948.2809;;;;
2019/04/05 07:38:10;;;;;;;32.6;25.5;;;;;;;5.76;75.20801;948.3005;;;;
2019/04/05 07:40:45;;;;;;;32.4;24.4;;;;;;;5.64;76.5498;948.2296;;;;
2019/04/05 07:43:10;;;;;;;31.3;23.4;;;;;;;5.84;75.13086;948.3279;;;;
2019/04/05 07:45:35;;;;;;;35.7;26.5;;;;;;;5.58;75.62012;948.2988;;;;
2019/04/05 07:48:00;;;;;;;33.5;24.9;;;;;;;5.99;75.69141;948.4539;;;;
2019/04/05 07:50:25;;;;;;;32.2;23.7;;;;;;;5.99;74.83887;948.4879;;;;
2019/04/05 07:52:50;;;;;;;34.9;24.8;;;;;;;5.83;74.57031;948.5014;;;;
2019/04/05 07:55:15;;;;;;;34.7;26.2;;;;;;;5.74;76.44336;948.5008;;;;
2019/04/05 07:57:40;;;;;;;37.9;26.7;;;;;;;5.58;75.8457;948.4805;;;;
2019/04/05 08:00:06;;;;;;;36.5;26.9;;;;;;;5.51;77.0498;948.4824;;;;
2019/04/05 08:02:31;;;;;;;38.1;26.8;;;;;;;5.78;76.38281;948.4756;;;;
2019/04/05 08:04:56;;;;;;;28.5;21.6;;;;;;;6.17;73.50098;948.4725;;;;
2019/04/05 08:07:21;;;;;;;33.8;24.4;;;;;;;5.94;75.20508;948.4966;;;;
2019/04/05 08:09:47;;;;;;;35.3;25.7;;;;;;;5.67;75.44238;948.4936;;;;
2019/04/05 08:12:11;;;;;;;31.8;23.6;;;;;;;5.92;75.51953;948.5628;;;;
2019/04/05 08:14:36;;;;;;;36;25.1;;;;;;;5.92;74.80176;948.4764;;;;
2019/04/05 08:17:02;;;;;;;30.4;23.2;;;;;;;6.08;75.03516;948.5405;;;;
2019/04/05 08:19:27;;;;;;;34.9;25.2;;;;;;;6.18;73.79883;948.5923;;;;
2019/04/05 08:21:52;;;;;;;34.7;24.5;;;;;;;5.97;74.78809;948.5674;;;;
2019/04/05 08:24:17;;;;;;;35.4;25.4;;;;;;;5.84;75.19922;948.5567;;;;
2019/04/05 08:26:42;;;;;;;36.2;25.5;;;;;;;5.91;76.01855;948.5765;;;;
2019/04/05 08:29:07;;;;;;;35.1;26;;;;;;;6.04;75.42578;948.5225;;;;
2019/04/05 08:31:32;;;;;;;35.4;26;;;;;;;5.98;74.62891;948.5109;;;;
2019/04/05 08:33:58;;;;;;;34.4;25;;;;;;;6.03;75.25293;948.541;;;;
2019/04/05 08:36:23;;;;;;;36.4;26.2;;;;;;;6.02;75.06934;948.5547;;;;
2019/04/05 08:38:48;;;;;;;34.4;24.4;;;;;;;6.1;74.51465;948.5519;;;;
2019/04/05 08:41:13;;;;;;;32.2;23.6;;;;;;;6.09;75.04688;948.5575;;;;
2019/04/05 08:43:38;;;;;;;33.5;24.4;;;;;;;5.94;75.26074;948.5402;;;;
2019/04/05 08:46:03;;;;;;;35.9;25.2;;;;;;;6.03;75.98242;948.541;;;;
2019/04/05 08:48:28;;;;;;;32;23.6;;;;;;;6.03;76.00684;948.5273;;;;
2019/04/05 08:50:54;;;;;;;32.7;23.4;;;;;;;6.14;75.13672;948.5181;;;;
2019/04/05 08:53:19;;;;;;;33.2;23.7;;;;;;;6.33;74.71484;948.5011;;;;
2019/04/05 08:55:44;;;;;;;32;24.1;;;;;;;6.45;73.75391;948.4949;;;;
2019/04/05 08:58:10;;;;;;;33.4;24.2;;;;;;;6.22;74.27441;948.5195;;;;
2019/04/05 09:00:36;;;;;;;34.3;24.6;;;;;;;6.29;75.2207;948.4916;;;;
2019/04/05 09:03:01;;;;;;;32.2;23.9;;;;;;;6.29;74.23926;948.4617;;;;
2019/04/05 09:05:26;;;;;;;36.8;24.4;;;;;;;6.18;75.33887;948.4969;;;;
2019/04/05 09:07:51;;;;;;;33.9;24.8;;;;;;;6.16;76.1543;948.5942;;;;
2019/04/05 09:10:16;;;;;;;34.6;24;;;;;;;6.33;74.31348;948.5924;;;;
2019/04/05 09:12:41;;;;;;;34.9;24.1;;;;;;;6.33;74.44043;948.5787;;;;
2019/04/05 09:15:06;;;;;;;34.5;24.5;;;;;;;6.47;75.10254;948.5197;;;;
2019/04/05 09:17:31;;;;;;;33.3;23.4;;;;;;;6.57;74.03809;948.5058;;;;
2019/04/05 09:19:56;;;;;;;36.3;25;;;;;;;6.4;73.60938;948.521;;;;
2019/04/05 09:22:22;;;;;;;32.9;23.6;;;;;;;6.47;74.14648;948.433;;;;
2019/04/05 09:24:47;;;;;;;34.3;24.6;;;;;;;6.34;74.30566;948.5176;;;;
2019/04/05 09:27:12;;;;;;;30.8;22.2;;;;;;;6.49;73.8877;948.4699;;;;
2019/04/05 09:29:37;;;;;;;40;25.8;;;;;;;6.4;74.14355;948.4608;;;;
2019/04/05 09:32:02;;;;;;;35.9;24.6;;;;;;;6.44;73.45801;948.4398;;;;
2019/04/05 09:34:27;;;;;;;35.6;24.4;;;;;;;6.47;73.90723;948.48;;;;
2019/04/05 09:36:52;;;;;;;33;24.3;;;;;;;6.57;73.13574;948.5366;;;;
2019/04/05 09:39:18;;;;;;;31.9;23.8;;;;;;;6.61;73.07617;948.4589;;;;
2019/04/05 09:41:43;;;;;;;33.3;22.1;;;;;;;6.73;73.92871;948.4742;;;;
2019/04/05 09:44:08;;;;;;;35.3;23.1;;;;;;;6.91;73.16016;948.5231;;;;
2019/04/05 09:46:33;;;;;;;35.8;24.4;;;;;;;6.9;72.3252;948.468;;;;
2019/04/05 09:48:58;;;;;;;36.4;24.7;;;;;;;7.07;71.58887;948.4997;;;;
2019/04/05 09:51:23;;;;;;;35.1;24.8;;;;;;;6.79;72.38867;948.4213;;;;
2019/04/05 09:53:48;;;;;;;37.4;26;;;;;;;6.66;74.97559;948.4635;;;;
2019/04/05 09:56:13;;;;;;;33.5;24.4;;;;;;;6.79;74.58691;948.4864;;;;
2019/04/05 09:58:39;;;;;;;32.1;22.9;;;;;;;6.91;73.04688;948.4149;;;;
2019/04/05 10:01:04;;;;;;;34.4;23.9;;;;;;;6.6;74.68164;948.3906;;;;
2019/04/05 10:03:29;;;;;;;32;23.1;;;;;;;6.73;73.38184;948.4183;;;;
2019/04/05 10:05:54;;;;;;;32.2;23.2;;;;;;;6.98;73.25195;948.3656;;;;
2019/04/05 10:08:20;;;;;;;35.4;23.5;;;;;;;6.97;71.75488;948.3405;;;;
2019/04/05 10:10:45;;;;;;;31.2;22.2;;;;;;;6.89;72.58594;948.4169;;;;
2019/04/05 10:13:10;;;;;;;30.8;21.8;;;;;;;6.92;71.75781;948.4052;;;;
2019/04/05 10:15:35;;;;;;;28.2;21.7;;;;;;;7.05;71.4834;948.3932;;;;
2019/04/05 10:18:00;;;;;;;30.9;21.1;;;;;;;7.11;71.58496;948.3536;;;;
2019/04/05 10:20:26;;;;;;;31;21.9;;;;;;;7.19;70.62793;948.3159;;;;
2019/04/05 10:22:51;;;;;;;28.6;20.8;;;;;;;7.01;71.37305;948.3198;;;;
2019/04/05 10:25:16;;;;;;;31.8;22.7;;;;;;;6.9;71.84766;948.3206;;;;
2019/04/05 10:27:41;;;;;;;30.6;21.6;;;;;;;6.97;72.41699;948.2626;;;;
2019/04/05 10:30:06;;;;;;;28.3;20.3;;;;;;;7.11;72.13281;948.215;;;;
2019/04/05 10:32:32;;;;;;;31.3;22;;;;;;;7.21;72.27539;948.262;;;;
2019/04/05 10:34:59;;;;;;;29.2;20.4;;;;;;;7.24;71.58301;948.2207;;;;
2019/04/05 10:37:24;;;;;;;28.9;20.8;;;;;;;7.11;71.27637;948.2628;;;;
2019/04/05 10:39:49;;;;;;;33.8;21.8;;;;;;;7.06;71.33594;948.2587;;;;
2019/04/05 10:42:14;;;;;;;32.7;22.2;;;;;;;7.11;71.64258;948.2109;;;;
2019/04/05 10:44:39;;;;;;;29.3;21.5;;;;;;;7.34;70.12598;948.2158;;;;
2019/04/05 10:47:04;;;;;;;28.2;20.3;;;;;;;7.47;69.78223;948.1905;;;;
2019/04/05 10:49:29;;;;;;;26.5;19.4;;;;;;;7.75;67.46094;948.1769;;;;
2019/04/05 10:51:54;;;;;;;25.5;18.7;;;;;;;8.51;65.2666;948.165;;;;
2019/04/05 10:54:19;;;;;;;26.6;19.6;;;;;;;8.42;64.29199;948.2211;;;;
2019/04/05 10:56:45;;;;;;;25.9;18.7;;;;;;;8.26;65.43457;948.1545;;;;
2019/04/05 10:59:10;;;;;;;25.5;18.2;;;;;;;8.77;64.06836;948.2085;;;;
2019/04/05 11:01:35;;;;;;;23.3;17.5;;;;;;;8.76;63.28711;948.14;;;;
2019/04/05 11:04:00;;;;;;;24.2;18.4;;;;;;;8.65;63.71973;948.1248;;;;
2019/04/05 11:06:26;;;;;;;22.7;17;;;;;;;8.93;63.38086;948.1144;;;;
2019/04/05 11:08:51;;;;;;;20.8;16.2;;;;;;;9.03;61.99609;948.0784;;;;
2019/04/05 11:11:16;;;;;;;21;16.1;;;;;;;9.08;61.71777;948.052;;;;
2019/04/05 11:13:41;;;;;;;19.4;14.7;;;;;;;9.01;60.9502;948.0639;;;;
2019/04/05 11:16:06;;;;;;;21.7;16.3;;;;;;;8.75;61.87598;948.0198;;;;
2019/04/05 11:18:32;;;;;;;23.9;16.6;;;;;;;8.83;62.73633;947.9905;;;;
2019/04/05 11:20:57;;;;;;;21.1;15.8;;;;;;;8.77;62.75;947.9875;;;;
2019/04/05 11:23:22;;;;;;;17.9;13.2;;;;;;;9.49;60.30664;947.829;;;;
2019/04/05 11:25:47;;;;;;;21.7;14.5;;;;;;;9.63;60.52051;947.8968;;;;
2019/04/05 11:28:13;;;;;;;18.7;13.9;;;;;;;9.29;60.20898;947.8962;;;;
2019/04/05 11:30:38;;;;;;;15.6;12.1;;;;;;;9.07;59.36523;947.8758;;;;
2019/04/05 11:33:03;;;;;;;15.8;12;;;;;;;9.17;59.19336;947.8356;;;;
2019/04/05 11:35:28;;;;;;;16.6;11.7;;;;;;;8.98;60.03906;947.807;;;;
2019/04/05 11:37:53;;;;;;;19.7;12.9;;;;;;;8.95;60.57422;947.8702;;;;
2019/04/05 11:40:18;;;;;;;16.3;12.5;;;;;;;9.03;60.87305;947.8363;;;;
2019/04/05 11:42:43;;;;;;;17.6;13.1;;;;;;;8.94;59.58887;947.8016;;;;
2019/04/05 11:45:09;;;;;;;23.3;14.2;;;;;;;8.89;60.55566;947.8373;;;;
2019/04/05 11:47:34;;;;;;;20.5;15.2;;;;;;;8.93;61.59277;947.7684;;;;
2019/04/05 11:49:59;;;;;;;19.2;14.5;;;;;;;8.79;62.80957;947.8641;;;;
2019/04/05 11:52:24;;;;;;;19.3;14.4;;;;;;;8.55;61.96289;947.8405;;;;
2019/04/05 11:54:49;;;;;;;19.8;14.5;;;;;;;8.56;62.36328;947.844;;;;
2019/04/05 11:57:14;;;;;;;18.3;13.8;;;;;;;8.38;63.00195;947.7879;;;;
2019/04/05 11:59:39;;;;;;;18.2;13.9;;;;;;;8.49;62.0791;947.7726;;;;
2019/04/05 12:03:55;;;;;;;20.2;13.8;;;;;;;8.6;62.01563;947.7833;;;;
2019/04/05 12:04:29;;;;;;;20.3;14.8;;;;;;;8.5;62.43555;947.8022;;;;
2019/04/05 12:06:55;;;;;;;19.5;14.5;;;;;;;8.3;62.47461;947.8301;;;;
2019/04/05 12:09:20;;;;;;;21.1;14.6;;;;;;;8.16;63.47461;947.8304;;;;
2019/04/05 12:11:45;;;;;;;20.9;14.5;;;;;;;8.38;63.32324;947.8439;;;;
2019/04/05 12:14:10;;;;;;;19.5;14.8;;;;;;;8.43;63.28418;947.8347;;;;
2019/04/05 12:16:35;;;;;;;20.3;15.3;;;;;;;8.25;63.91016;947.8864;;;;
2019/04/05 12:19:00;;;;;;;19.7;14.8;;;;;;;8.17;64.45898;947.9208;;;;
2019/04/05 12:21:25;;;;;;;20.7;14.9;;;;;;;8.21;64.56738;947.8261;;;;
2019/04/05 12:23:50;;;;;;;21;15.1;;;;;;;8.31;64.9834;947.8553;;;;
2019/04/05 12:26:15;;;;;;;20.5;15.2;;;;;;;8.3;64.87891;947.8172;;;;
2019/04/05 12:28:40;;;;;;;20;15.6;;;;;;;8.36;63.26367;947.7892;;;;
2019/04/05 12:31:05;;;;;;;18.8;14.7;;;;;;;8.32;63.76074;947.802;;;;
2019/04/05 12:33:31;;;;;;;19.7;14.8;;;;;;;8.68;62.92188;947.702;;;;
2019/04/05 12:35:56;;;;;;;20;15.2;;;;;;;8.93;61.93652;947.6945;;;;
2019/04/05 12:38:30;;;;;;;20.4;15.2;;;;;;;9.26;61.54785;947.6824;;;;
2019/04/05 12:40:46;;;;;;;18.9;15;;;;;;;9.75;62.14648;947.6848;;;;
2019/04/05 12:43:11;;;;;;;20.3;15.6;;;;;;;9.88;60.54492;947.6545;;;;
2019/04/05 12:45:36;;;;;;;19.6;14.5;;;;;;;10.14;58.47852;947.5574;;;;
2019/04/05 12:48:02;;;;;;;17.2;14.3;;;;;;;10.28;59.25391;947.6039;;;;
2019/04/05 12:50:27;;;;;;;19.4;15.1;;;;;;;10.37;56.96777;947.5372;;;;
2019/04/05 12:52:52;;;;;;;18.5;14.4;;;;;;;10.39;57.0498;947.5617;;;;
2019/04/05 12:55:17;;;;;;;19.1;15.4;;;;;;;10.09;58.71094;947.5067;;;;
2019/04/05 12:57:42;;;;;;;18.8;15.4;;;;;;;9.87;61.23242;947.5463;;;;
2019/04/05 13:00:07;;;;;;;19.7;15.4;;;;;;;9.74;60.27344;947.5426;;;;
2019/04/05 13:02:32;;;;;;;18.4;15;;;;;;;9.49;60.14648;947.5508;;;;
2019/04/05 13:04:57;;;;;;;17.2;14.8;;;;;;;9.59;60.88379;947.5405;;;;
2019/04/05 13:07:22;;;;;;;17.9;15.1;;;;;;;9.59;60.18262;947.5015;;;;
2019/04/05 13:09:47;;;;;;;20.9;16.7;;;;;;;8.94;62.4541;947.4727;;;;
2019/04/05 13:12:12;;;;;;;19.3;15.6;;;;;;;9.03;62.85742;947.5237;;;;
2019/04/05 13:14:37;;;;;;;18.1;15.2;;;;;;;8.95;61.58398;947.5541;;;;
2019/04/05 13:17:03;;;;;;;19.6;15.6;;;;;;;8.8;63.87695;947.4956;;;;
2019/04/05 13:19:28;;;;;;;19.4;15.9;;;;;;;8.88;62.85742;947.4658;;;;
2019/04/05 13:21:53;;;;;;;19.4;15.2;;;;;;;8.91;63.06934;947.4578;;;;
2019/04/05 13:24:18;;;;;;;19.5;15.8;;;;;;;8.81;62.5498;947.4639;;;;
2019/04/05 13:26:43;;;;;;;22.1;16.8;;;;;;;8.77;62.64648;947.4158;;;;
2019/04/05 13:29:09;;;;;;;22;17.1;;;;;;;8.83;63.44727;947.4446;;;;
2019/04/05 13:31:34;;;;;;;18;14.8;;;;;;;8.9;63.16992;947.4766;;;;
2019/04/05 13:33:59;;;;;;;21.5;15.9;;;;;;;9.13;61.86133;947.4185;;;;
2019/04/05 13:36:24;;;;;;;20.8;16.2;;;;;;;8.91;63.60742;947.3539;;;;
2019/04/05 13:38:49;;;;;;;20.2;16;;;;;;;9.11;63.41895;947.3818;;;;
2019/04/05 13:41:14;;;;;;;21.8;15.8;;;;;;;9.1;62.79785;947.4006;;;;
2019/04/05 13:43:39;;;;;;;20.6;16.5;;;;;;;8.98;63.19238;947.3431;;;;
2019/04/05 13:46:04;;;;;;;21.6;16.2;;;;;;;9.11;61.35254;947.2607;;;;
2019/04/05 13:48:30;;;;;;;21.8;17.4;;;;;;;9.12;61.32227;947.2503;;;;
2019/04/05 13:50:55;;;;;;;21.3;16.3;;;;;;;8.92;62.42773;947.2583;;;;
2019/04/05 13:53:20;;;;;;;19.9;15.6;;;;;;;8.92;62.50879;947.3013;;;;
2019/04/05 13:55:45;;;;;;;20.3;16.4;;;;;;;9.06;62.23145;947.2003;;;;
2019/04/05 13:58:10;;;;;;;19.9;16.4;;;;;;;8.99;62.4502;947.2162;;;;
2019/04/05 14:00:35;;;;;;;23.6;18;;;;;;;9.03;61.89355;947.1685;;;;
2019/04/05 14:03:00;;;;;;;21.2;17.8;;;;;;;9;62.2334;947.1108;;;;